Time;durP1;ratioP1;P1;durP2;ratioP2;P2;SDS_P1;SDS_P2;PMS_P1;PMS_P2;Temp;Humidity;BMP_temperature;BMP_pressure;BME280_temperature;BME280_humidity;BME280_pressure;Samples;Min_cycle;Max_cycle;Signal;HPM_P1;HPM_P2
2021/10/10 00:01:59;;;;;;;13.50;5.90;;;;;;;-145.18;0.00;102943.50;5054308;28;20429;-72
2021/10/10 00:04:24;;;;;;;18.17;6.40;;;;;;;-145.18;0.00;102943.50;5063887;28;20032;-73
2021/10/10 00:06:50;;;;;;;14.30;7.07;;;;;;;-145.18;0.00;102943.50;5072925;28;20200;-73
2021/10/10 00:09:15;;;;;;;12.43;5.87;;;;;;;-145.18;0.00;102943.50;5065614;28;20171;-72
2021/10/10 00:11:41;;;;;;;16.20;7.00;;;;;;;-145.18;0.00;102943.50;5056817;28;20135;-72
2021/10/10 00:14:06;;;;;;;13.43;6.77;;;;;;;-145.18;0.00;102943.50;5071699;28;20450;-72
2021/10/10 00:16:32;;;;;;;14.37;6.17;;;;;;;-145.18;0.00;102943.50;5074282;28;20026;-72
2021/10/10 00:19:00;;;;;;;15.33;6.80;;;;;;;-145.18;0.00;102943.50;5067004;28;20032;-72
2021/10/10 00:21:26;;;;;;;11.83;6.00;;;;;;;-145.18;0.00;102943.50;5072721;28;20035;-72
2021/10/10 00:23:55;;;;;;;13.47;6.17;;;;;;;-145.18;0.00;102943.50;5068472;28;20461;-72
2021/10/10 00:26:20;;;;;;;13.50;6.83;;;;;;;-145.18;0.00;102943.50;5072072;28;20115;-72
2021/10/10 00:28:46;;;;;;;13.33;7.43;;;;;;;-145.18;0.00;102943.50;5066518;28;20111;-72
2021/10/10 00:31:11;;;;;;;12.00;6.03;;;;;;;-145.18;0.00;102943.50;5061710;28;20029;-72
2021/10/10 00:33:37;;;;;;;14.73;6.60;;;;;;;-145.18;0.00;102943.50;5062379;28;20039;-72
2021/10/10 00:36:02;;;;;;;15.33;6.17;;;;;;;-145.18;0.00;102943.50;5078591;28;20032;-72
2021/10/10 00:38:28;;;;;;;11.70;6.27;;;;;;;-145.18;0.00;102943.50;5078032;28;20040;-72
2021/10/10 00:40:53;;;;;;;16.03;6.37;;;;;;;-145.18;0.00;102943.50;5072853;28;20435;-72
2021/10/10 00:43:19;;;;;;;15.97;6.70;;;;;;;-145.18;0.00;102943.50;5071936;28;21198;-72
2021/10/10 00:45:49;;;;;;;12.97;6.43;;;;;;;-145.18;0.00;102943.50;5081779;28;20559;-72
2021/10/10 00:48:14;;;;;;;15.83;7.20;;;;;;;-145.18;0.00;102943.50;5065669;28;20042;-72
2021/10/10 00:50:40;;;;;;;17.07;7.37;;;;;;;-145.18;0.00;102943.50;5069100;28;20028;-72
2021/10/10 00:53:07;;;;;;;16.33;7.57;;;;;;;-145.18;0.00;102943.50;5071728;28;20042;-72
2021/10/10 00:55:34;;;;;;;17.60;8.93;;;;;;;-145.18;0.00;102943.50;5079037;28;20032;-71
2021/10/10 00:58:02;;;;;;;17.70;8.10;;;;;;;-145.18;0.00;102943.50;5071821;28;20453;-72
2021/10/10 01:00:28;;;;;;;18.10;7.80;;;;;;;-145.18;0.00;102943.50;5079660;28;20270;-72
2021/10/10 01:02:57;;;;;;;17.17;7.67;;;;;;;-145.18;0.00;102943.50;5071322;28;20286;-72
2021/10/10 01:05:24;;;;;;;17.47;8.17;;;;;;;-145.18;0.00;102943.50;5074163;28;20639;-72
2021/10/10 01:07:50;;;;;;;17.67;7.80;;;;;;;-145.18;0.00;102943.50;5073659;28;20929;-72
2021/10/10 01:10:16;;;;;;;16.93;8.20;;;;;;;-145.18;0.00;102943.50;5068853;28;20334;-72
2021/10/10 01:12:42;;;;;;;16.97;8.23;;;;;;;-145.18;0.00;102943.50;5076522;28;20024;-72
2021/10/10 01:15:09;;;;;;;17.27;8.03;;;;;;;-145.18;0.00;102943.50;5074551;28;20557;-72
2021/10/10 01:17:36;;;;;;;16.37;7.30;;;;;;;-145.18;0.00;102943.50;5070683;28;20166;-72
2021/10/10 01:20:04;;;;;;;15.33;8.13;;;;;;;-145.18;0.00;102943.50;5062150;28;20270;-72
2021/10/10 01:22:30;;;;;;;19.63;8.57;;;;;;;-145.18;0.00;102943.50;5077739;28;20661;-73
2021/10/10 01:24:56;;;;;;;15.00;7.90;;;;;;;-145.18;0.00;102943.50;5073063;28;20361;-73
2021/10/10 01:27:21;;;;;;;15.07;8.00;;;;;;;-145.18;0.00;102943.50;5075334;28;20020;-72
2021/10/10 01:29:47;;;;;;;18.70;8.67;;;;;;;-145.18;0.00;102943.50;5068787;28;21847;-72
2021/10/10 01:32:13;;;;;;;16.30;8.00;;;;;;;-145.18;0.00;102943.50;5081367;28;20032;-72
2021/10/10 01:34:45;;;;;;;15.83;7.83;;;;;;;-145.18;0.00;102943.50;5070786;28;20603;-72
2021/10/10 01:37:12;;;;;;;17.03;8.00;;;;;;;-145.18;0.00;102943.50;5076819;28;20745;-72
2021/10/10 01:39:38;;;;;;;17.90;8.77;;;;;;;-145.18;0.00;102943.50;5077121;28;20283;-72
2021/10/10 01:42:04;;;;;;;21.57;9.17;;;;;;;-145.18;0.00;102943.50;5070545;28;20570;-73
2021/10/10 01:44:29;;;;;;;15.70;8.27;;;;;;;-145.18;0.00;102943.50;5070028;28;20043;-72
2021/10/10 01:46:55;;;;;;;17.10;8.27;;;;;;;-145.18;0.00;102943.50;5065084;28;20526;-72
2021/10/10 01:49:20;;;;;;;16.80;8.17;;;;;;;-145.18;0.00;102943.50;5068534;28;20035;-72
2021/10/10 01:51:46;;;;;;;17.00;8.80;;;;;;;-145.18;0.00;102943.50;5068313;28;20024;-72
2021/10/10 01:54:12;;;;;;;17.03;8.10;;;;;;;-145.18;0.00;102943.50;5071476;28;20031;-72
2021/10/10 01:56:37;;;;;;;18.17;8.50;;;;;;;-145.18;0.00;102943.50;5069075;28;20036;-73
2021/10/10 01:59:03;;;;;;;16.97;8.30;;;;;;;-145.18;0.00;102943.50;5070421;28;20061;-73
2021/10/10 02:01:28;;;;;;;18.00;8.50;;;;;;;-145.18;0.00;102943.50;5070733;28;20036;-72
2021/10/10 02:03:54;;;;;;;19.93;8.97;;;;;;;-145.18;0.00;102943.50;5074085;28;20052;-72
2021/10/10 02:06:19;;;;;;;17.90;8.87;;;;;;;-145.18;0.00;102943.50;5070766;28;20512;-72
2021/10/10 02:08:45;;;;;;;18.77;9.30;;;;;;;-145.18;0.00;102943.50;5066364;28;20255;-72
2021/10/10 02:11:10;;;;;;;25.60;9.27;;;;;;;-145.18;0.00;102943.50;5078210;28;20044;-72
2021/10/10 02:13:36;;;;;;;16.13;8.03;;;;;;;-145.18;0.00;102943.50;5075736;28;20554;-73
2021/10/10 02:16:01;;;;;;;17.43;8.87;;;;;;;-145.18;0.00;102943.50;5080724;28;20024;-72
2021/10/10 02:18:27;;;;;;;20.43;9.13;;;;;;;-145.18;0.00;102943.50;5068955;28;20017;-72
2021/10/10 02:20:52;;;;;;;17.73;9.30;;;;;;;-145.18;0.00;102943.50;5070898;28;20113;-72
2021/10/10 02:23:18;;;;;;;14.37;7.90;;;;;;;-145.18;0.00;102943.50;5070666;28;20157;-72
2021/10/10 02:25:44;;;;;;;20.73;9.20;;;;;;;-145.18;0.00;102943.50;5064150;28;20055;-72
2021/10/10 02:28:09;;;;;;;24.37;10.07;;;;;;;-145.18;0.00;102943.50;5070687;28;20059;-72
2021/10/10 02:30:35;;;;;;;18.83;9.57;;;;;;;-145.18;0.00;102943.50;5073577;28;20042;-72
2021/10/10 02:33:01;;;;;;;19.97;9.20;;;;;;;-145.18;0.00;102943.50;5079619;28;20028;-73
2021/10/10 02:35:26;;;;;;;20.17;9.70;;;;;;;-145.18;0.00;102943.50;5065828;28;20035;-72
2021/10/10 02:37:52;;;;;;;19.83;9.30;;;;;;;-145.18;0.00;102943.50;5080185;28;20113;-73
2021/10/10 02:40:17;;;;;;;17.63;9.50;;;;;;;-145.18;0.00;102943.50;5067031;28;20026;-73
2021/10/10 02:42:45;;;;;;;20.97;10.07;;;;;;;-145.18;0.00;102943.50;5073419;28;20170;-72
2021/10/10 02:45:11;;;;;;;19.87;9.00;;;;;;;-145.18;0.00;102943.50;5071671;28;20030;-72
2021/10/10 02:47:37;;;;;;;18.50;9.00;;;;;;;-145.18;0.00;102943.50;5068706;28;20772;-72
2021/10/10 02:50:03;;;;;;;22.57;9.00;;;;;;;-145.18;0.00;102943.50;5074339;28;20023;-72
2021/10/10 02:52:29;;;;;;;17.20;8.77;;;;;;;-145.18;0.00;102943.50;5072428;28;20123;-72
2021/10/10 02:54:54;;;;;;;23.87;10.23;;;;;;;-145.18;0.00;102943.50;5076326;28;20712;-72
2021/10/10 02:57:20;;;;;;;21.53;11.10;;;;;;;-145.18;0.00;102943.50;5073118;28;20035;-72
2021/10/10 02:59:46;;;;;;;24.10;10.57;;;;;;;-145.18;0.00;102943.50;5068928;28;20035;-73
2021/10/10 03:02:11;;;;;;;21.63;10.80;;;;;;;-145.18;0.00;102943.50;5075053;28;20043;-73
2021/10/10 03:04:37;;;;;;;26.50;12.30;;;;;;;-145.18;0.00;102943.50;5068730;28;20675;-73
2021/10/10 03:07:03;;;;;;;19.50;10.60;;;;;;;-145.18;0.00;102943.50;5067288;28;20031;-73
2021/10/10 03:09:28;;;;;;;20.33;10.63;;;;;;;-145.18;0.00;102943.50;5065750;28;20101;-72
2021/10/10 03:11:56;;;;;;;22.60;10.87;;;;;;;-145.18;0.00;102943.50;5073810;28;20080;-72
2021/10/10 03:14:22;;;;;;;22.30;10.87;;;;;;;-145.18;0.00;102943.50;5065572;28;20303;-73
2021/10/10 03:16:47;;;;;;;21.90;9.77;;;;;;;-145.18;0.00;102943.50;5064141;28;20282;-73
2021/10/10 03:19:14;;;;;;;19.63;9.73;;;;;;;-145.18;0.00;102943.50;5066982;28;20032;-75
2021/10/10 03:21:39;;;;;;;20.30;10.53;;;;;;;-145.18;0.00;102943.50;5076376;28;20438;-74
2021/10/10 03:24:05;;;;;;;20.70;10.53;;;;;;;-145.18;0.00;102943.50;5073926;28;20374;-74
2021/10/10 03:26:31;;;;;;;23.57;9.83;;;;;;;-145.18;0.00;102943.50;5070092;28;20150;-74
2021/10/10 03:28:56;;;;;;;21.63;10.00;;;;;;;-145.18;0.00;102943.50;5073268;28;20271;-74
2021/10/10 03:31:22;;;;;;;20.37;9.23;;;;;;;-145.18;0.00;102943.50;5072127;28;20114;-74
2021/10/10 03:33:48;;;;;;;17.43;9.30;;;;;;;-145.18;0.00;102943.50;5070606;28;20125;-74
2021/10/10 03:36:13;;;;;;;20.57;9.50;;;;;;;-145.18;0.00;102943.50;5075203;28;20035;-74
2021/10/10 03:38:39;;;;;;;20.23;9.40;;;;;;;-145.18;0.00;102943.50;5073174;28;20284;-74
2021/10/10 03:41:05;;;;;;;22.73;10.70;;;;;;;-145.18;0.00;102943.50;5070503;28;20203;-74
2021/10/10 03:43:30;;;;;;;20.80;10.07;;;;;;;-145.18;0.00;102943.50;5068417;28;20028;-74
2021/10/10 03:45:56;;;;;;;23.40;10.77;;;;;;;-145.18;0.00;102943.50;5077910;28;20529;-74
2021/10/10 03:48:23;;;;;;;20.63;10.17;;;;;;;-145.18;0.00;102943.50;5071252;28;20118;-74
2021/10/10 03:50:49;;;;;;;21.67;10.47;;;;;;;-145.18;0.00;102943.50;5076240;28;20398;-74
2021/10/10 03:53:14;;;;;;;24.53;11.10;;;;;;;-145.18;0.00;102943.50;5075952;28;20489;-74
2021/10/10 03:55:40;;;;;;;22.30;11.20;;;;;;;-145.18;0.00;102943.50;5073964;28;20039;-74
2021/10/10 03:58:06;;;;;;;20.33;10.20;;;;;;;-145.18;0.00;102943.50;5074917;28;20020;-74
2021/10/10 04:00:33;;;;;;;20.77;9.90;;;;;;;-145.18;0.00;102943.50;5066102;28;20021;-74
2021/10/10 04:03:02;;;;;;;19.17;10.03;;;;;;;-145.18;0.00;102943.50;5069213;28;20286;-74
2021/10/10 04:08:11;;;;;;;22.80;11.37;;;;;;;-145.18;0.00;102943.50;5067215;28;20655;-74
2021/10/10 04:10:37;;;;;;;20.13;10.30;;;;;;;-145.18;0.00;102943.50;5064309;28;20622;-74
2021/10/10 04:13:06;;;;;;;22.23;9.97;;;;;;;-145.18;0.00;102943.50;5067485;28;20738;-74
2021/10/10 04:15:33;;;;;;;22.33;11.37;;;;;;;-145.18;0.00;102943.50;5073174;28;20282;-74
2021/10/10 04:17:59;;;;;;;20.97;10.60;;;;;;;-145.18;0.00;102943.50;5072724;28;20355;-74
2021/10/10 04:20:28;;;;;;;21.97;10.33;;;;;;;-145.18;0.00;102943.50;5076897;28;20787;-74
2021/10/10 04:22:53;;;;;;;21.83;10.70;;;;;;;-145.18;0.00;102943.50;5077519;28;20529;-74
2021/10/10 04:25:19;;;;;;;23.37;10.57;;;;;;;-145.18;0.00;102943.50;5064349;28;20266;-73
2021/10/10 04:27:44;;;;;;;19.80;9.80;;;;;;;-145.18;0.00;102943.50;5072146;28;20036;-74
2021/10/10 04:30:13;;;;;;;22.83;11.37;;;;;;;-145.18;0.00;102943.50;5067658;28;20633;-74
2021/10/10 04:32:40;;;;;;;23.37;10.80;;;;;;;-145.18;0.00;102943.50;5073652;28;20020;-74
2021/10/10 04:35:07;;;;;;;22.87;10.77;;;;;;;-145.18;0.00;102943.50;5061523;28;20282;-74
2021/10/10 04:37:32;;;;;;;22.47;11.10;;;;;;;-145.18;0.00;102943.50;5075359;28;20281;-74
2021/10/10 04:39:58;;;;;;;21.13;10.97;;;;;;;-145.18;0.00;102943.50;5065723;28;20661;-73
2021/10/10 04:42:23;;;;;;;24.57;11.00;;;;;;;-145.18;0.00;102943.50;5064121;28;20097;-74
2021/10/10 04:44:49;;;;;;;21.40;10.73;;;;;;;-145.18;0.00;102943.50;5072182;28;20264;-74
2021/10/10 04:47:14;;;;;;;22.83;11.30;;;;;;;-145.18;0.00;102943.50;5078031;28;20035;-74
2021/10/10 04:49:40;;;;;;;22.30;11.50;;;;;;;-145.18;0.00;102943.50;5073450;28;20185;-71
2021/10/10 04:52:05;;;;;;;25.10;12.00;;;;;;;-145.18;0.00;102943.50;5072470;28;20186;-71
2021/10/10 04:54:33;;;;;;;22.40;11.27;;;;;;;-145.18;0.00;102943.50;5062368;28;20478;-71
2021/10/10 04:56:59;;;;;;;24.70;10.57;;;;;;;-145.18;0.00;102943.50;5064477;28;20032;-71
2021/10/10 04:59:25;;;;;;;25.30;11.60;;;;;;;-145.18;0.00;102943.50;5063084;28;20320;-71
2021/10/10 05:01:50;;;;;;;25.73;11.13;;;;;;;-145.18;0.00;102943.50;5075938;28;20032;-71
2021/10/10 05:04:16;;;;;;;23.47;11.60;;;;;;;-145.18;0.00;102943.50;5069350;28;20043;-71
2021/10/10 05:06:41;;;;;;;24.77;11.97;;;;;;;-145.18;0.00;102943.50;5072728;28;20490;-71
2021/10/10 05:09:07;;;;;;;25.40;12.43;;;;;;;-145.18;0.00;102943.50;5064807;28;20107;-71
2021/10/10 05:11:32;;;;;;;24.60;12.37;;;;;;;-145.18;0.00;102943.50;5071508;28;20437;-71
2021/10/10 05:13:57;;;;;;;25.07;12.87;;;;;;;-145.18;0.00;102943.50;5070712;28;20039;-71
2021/10/10 05:16:23;;;;;;;22.50;11.13;;;;;;;-145.18;0.00;102943.50;5074433;28;20031;-71
2021/10/10 05:18:49;;;;;;;26.53;11.63;;;;;;;-145.18;0.00;102943.50;5065747;28;20379;-72
2021/10/10 05:21:14;;;;;;;24.20;12.20;;;;;;;-145.18;0.00;102943.50;5067534;28;20024;-71
2021/10/10 05:23:40;;;;;;;26.27;12.50;;;;;;;-145.18;0.00;102943.50;5074099;28;20133;-71
2021/10/10 05:26:06;;;;;;;24.23;12.27;;;;;;;-145.18;0.00;102943.50;5074960;28;20184;-71
2021/10/10 05:28:32;;;;;;;27.90;12.43;;;;;;;-145.18;0.00;102943.50;5077124;28;20032;-71
2021/10/10 05:30:57;;;;;;;25.00;11.73;;;;;;;-145.18;0.00;102943.50;5066021;28;20556;-71
2021/10/10 05:33:23;;;;;;;24.97;11.93;;;;;;;-145.18;0.00;102943.50;5072859;28;20054;-71
2021/10/10 05:35:49;;;;;;;28.53;12.57;;;;;;;-145.18;0.00;102943.50;5081037;28;20028;-71
2021/10/10 05:38:14;;;;;;;26.03;11.93;;;;;;;-145.18;0.00;102943.50;5071809;28;20066;-71
2021/10/10 05:40:40;;;;;;;24.47;13.03;;;;;;;-145.18;0.00;102943.50;5069161;28;20195;-71
2021/10/10 05:43:05;;;;;;;26.00;12.37;;;;;;;-145.18;0.00;102943.50;5069670;28;20068;-71
2021/10/10 05:45:31;;;;;;;27.17;13.63;;;;;;;-145.18;0.00;102943.50;5065015;28;20343;-71
2021/10/10 05:47:57;;;;;;;27.57;13.33;;;;;;;-145.18;0.00;102943.50;5077582;28;20036;-71
2021/10/10 05:50:22;;;;;;;26.50;12.57;;;;;;;-145.18;0.00;102943.50;5076940;28;20024;-71
2021/10/10 05:52:48;;;;;;;34.03;13.27;;;;;;;-145.18;0.00;102943.50;5078522;28;20577;-71
2021/10/10 05:55:15;;;;;;;28.57;12.47;;;;;;;-145.18;0.00;102943.50;5075360;28;20221;-71
2021/10/10 05:57:49;;;;;;;28.93;13.83;;;;;;;-145.18;0.00;102943.50;5073568;28;20395;-71
2021/10/10 06:00:16;;;;;;;26.57;13.70;;;;;;;-145.18;0.00;102943.50;5066521;28;20282;-71
2021/10/10 06:02:43;;;;;;;31.70;14.17;;;;;;;-145.18;0.00;102943.50;5070517;28;20620;-71
2021/10/10 06:05:12;;;;;;;28.93;14.23;;;;;;;-145.18;0.00;102943.50;5073193;28;20282;-71
2021/10/10 06:07:38;;;;;;;29.77;13.23;;;;;;;-145.18;0.00;102943.50;5071256;28;20566;-71
2021/10/10 06:10:05;;;;;;;26.87;12.07;;;;;;;-145.18;0.00;102943.50;5074873;28;20282;-71
2021/10/10 06:12:31;;;;;;;19.67;10.10;;;;;;;-145.18;0.00;102943.50;5073151;28;20200;-71
2021/10/10 06:15:00;;;;;;;21.37;11.43;;;;;;;-145.18;0.00;102943.50;5064368;28;20282;-71
2021/10/10 06:17:26;;;;;;;18.87;9.87;;;;;;;-145.18;0.00;102943.50;5062331;28;20378;-71
2021/10/10 06:19:52;;;;;;;19.30;9.93;;;;;;;-145.18;0.00;102943.50;5069738;28;20353;-71
2021/10/10 06:22:17;;;;;;;18.80;10.37;;;;;;;-145.18;0.00;102943.50;5073771;28;20258;-71
2021/10/10 06:24:43;;;;;;;17.93;9.43;;;;;;;-145.18;0.00;102943.50;5074559;28;20016;-71
2021/10/10 06:27:08;;;;;;;16.10;8.40;;;;;;;-145.18;0.00;102943.50;5074212;28;20123;-71
2021/10/10 06:29:34;;;;;;;18.77;9.30;;;;;;;-145.18;0.00;102943.50;5067546;28;20046;-71
2021/10/10 06:31:59;;;;;;;20.67;10.03;;;;;;;-145.18;0.00;102943.50;5072646;28;20054;-71
2021/10/10 06:34:25;;;;;;;21.43;11.10;;;;;;;-145.18;0.00;102943.50;5072884;28;20474;-71
2021/10/10 06:36:51;;;;;;;20.37;10.17;;;;;;;-145.18;0.00;102943.50;5078033;28;20035;-71
2021/10/10 06:39:17;;;;;;;17.87;9.53;;;;;;;-145.18;0.00;102943.50;5068515;28;20113;-71
2021/10/10 06:41:44;;;;;;;19.43;9.37;;;;;;;-145.18;0.00;102943.50;5079001;28;20364;-71
2021/10/10 06:44:10;;;;;;;21.77;9.40;;;;;;;-145.18;0.00;102943.50;5077244;28;20036;-71
2021/10/10 06:46:35;;;;;;;22.40;10.50;;;;;;;-145.18;0.00;102943.50;5071417;28;20293;-71
2021/10/10 06:49:01;;;;;;;21.13;10.60;;;;;;;-145.18;0.00;102943.50;5064991;28;20035;-71
2021/10/10 06:51:28;;;;;;;25.30;11.37;;;;;;;-145.18;0.00;102943.50;5076140;28;20137;-71
2021/10/10 06:53:53;;;;;;;19.43;10.57;;;;;;;-145.18;0.00;102943.50;5076040;28;20038;-71
2021/10/10 06:56:19;;;;;;;24.50;12.43;;;;;;;-145.18;0.00;102943.50;5075953;28;20787;-71
2021/10/10 06:58:44;;;;;;;24.73;11.53;;;;;;;-145.18;0.00;102943.50;5066343;28;20223;-71
2021/10/10 07:01:14;;;;;;;22.20;10.97;;;;;;;-145.18;0.00;102943.50;5071326;28;20461;-71
2021/10/10 07:03:40;;;;;;;20.60;10.77;;;;;;;-145.18;0.00;102943.50;5069500;28;20071;-71
2021/10/10 07:06:05;;;;;;;18.17;9.67;;;;;;;-145.18;0.00;102943.50;5060405;28;20366;-71
2021/10/10 07:08:31;;;;;;;20.20;10.47;;;;;;;-145.18;0.00;102943.50;5063733;28;20028;-71
2021/10/10 07:10:57;;;;;;;20.37;10.07;;;;;;;-145.18;0.00;102943.50;5069971;28;20052;-71
2021/10/10 07:13:22;;;;;;;21.00;10.77;;;;;;;-145.18;0.00;102943.50;5068347;28;20340;-71
2021/10/10 07:15:48;;;;;;;21.93;9.47;;;;;;;-145.18;0.00;102943.50;5058930;28;20032;-71
2021/10/10 07:18:15;;;;;;;19.63;9.77;;;;;;;-145.18;0.00;102943.50;5066281;28;20502;-71
2021/10/10 07:21:05;;;;;;;15.97;8.40;;;;;;;-145.18;0.00;102943.50;5069294;28;20559;-71
2021/10/10 07:23:54;;;;;;;15.73;8.40;;;;;;;-145.18;0.00;102943.50;5069848;28;20584;-71
2021/10/10 07:26:24;;;;;;;15.10;8.33;;;;;;;-145.18;0.00;102943.50;5082467;28;20621;-71
2021/10/10 07:28:50;;;;;;;14.17;7.30;;;;;;;-145.18;0.00;102943.50;5068263;28;20513;-72
2021/10/10 07:31:16;;;;;;;16.03;7.87;;;;;;;-145.18;0.00;102943.50;5070950;28;20025;-71
2021/10/10 07:33:43;;;;;;;14.03;7.60;;;;;;;-145.18;0.00;102943.50;5069317;28;20168;-71
2021/10/10 07:36:08;;;;;;;15.07;6.87;;;;;;;-145.18;0.00;102943.50;5076946;28;20032;-72
2021/10/10 07:38:34;;;;;;;11.37;6.63;;;;;;;-145.18;0.00;102943.50;5073814;28;20067;-72
2021/10/10 07:41:00;;;;;;;13.97;5.53;;;;;;;-145.18;0.00;102943.50;5070714;28;20035;-71
2021/10/10 07:43:26;;;;;;;11.27;5.50;;;;;;;-145.18;0.00;102943.50;5068507;28;20115;-71
2021/10/10 07:45:52;;;;;;;10.47;5.17;;;;;;;-145.18;0.00;102943.50;5073831;28;20036;-71
2021/10/10 07:48:18;;;;;;;12.40;5.50;;;;;;;-145.18;0.00;102943.50;5068529;28;20171;-71
2021/10/10 07:50:45;;;;;;;10.90;4.93;;;;;;;-145.18;0.00;102943.50;5059140;28;20036;-71
2021/10/10 07:53:10;;;;;;;9.53;4.53;;;;;;;-145.18;0.00;102943.50;5066722;28;20016;-71
2021/10/10 07:55:36;;;;;;;8.77;4.53;;;;;;;-145.18;0.00;102943.50;5069798;28;20012;-71
2021/10/10 07:58:02;;;;;;;8.93;4.20;;;;;;;-145.18;0.00;102943.50;5070142;28;20410;-71
2021/10/10 08:00:30;;;;;;;10.10;4.73;;;;;;;-145.18;0.00;102943.50;5070487;28;20027;-70
2021/10/10 08:02:57;;;;;;;8.70;4.43;;;;;;;-145.18;0.00;102943.50;5063168;28;20107;-71
2021/10/10 08:05:25;;;;;;;11.30;5.50;;;;;;;-145.18;0.00;102943.50;5070045;28;20099;-71
2021/10/10 08:07:52;;;;;;;8.60;4.63;;;;;;;-145.18;0.00;102943.50;5067136;28;20200;-71
2021/10/10 08:10:18;;;;;;;10.40;4.77;;;;;;;-145.18;0.00;102943.50;5062310;28;20529;-72
2021/10/10 08:12:44;;;;;;;11.50;4.68;;;;;;;-145.18;0.00;102943.50;5069212;28;20270;-71
2021/10/10 08:15:10;;;;;;;11.13;5.10;;;;;;;-145.18;0.00;102943.50;5077263;28;20028;-72
2021/10/10 08:17:36;;;;;;;10.18;4.78;;;;;;;-145.18;0.00;102943.50;5068692;28;20262;-73
2021/10/10 08:20:03;;;;;;;10.95;4.80;;;;;;;-145.18;0.00;102943.50;5061840;28;20040;-72
2021/10/10 08:22:30;;;;;;;9.65;4.85;;;;;;;-145.18;0.00;102943.50;5060874;28;20027;-73
2021/10/10 08:24:56;;;;;;;13.50;4.93;;;;;;;-145.18;0.00;102943.50;5065372;28;20653;-73
2021/10/10 08:27:22;;;;;;;8.82;4.78;;;;;;;-145.18;0.00;102943.50;5062979;28;20038;-72
2021/10/10 08:29:47;;;;;;;8.55;4.22;;;;;;;-145.18;0.00;102943.50;5071514;28;20107;-72
2021/10/10 08:32:13;;;;;;;10.52;4.28;;;;;;;-145.18;0.00;102943.50;5070387;28;20067;-73
2021/10/10 08:34:56;;;;;;;24.38;5.10;;;;;;;-145.18;0.00;102943.50;5061506;28;20123;-72
2021/10/10 08:37:21;;;;;;;8.00;4.30;;;;;;;-145.18;0.00;102943.50;5070916;28;20037;-73
2021/10/10 08:39:47;;;;;;;10.02;4.40;;;;;;;-145.18;0.00;102943.50;5073968;28;20051;-72
2021/10/10 08:42:14;;;;;;;10.15;4.50;;;;;;;-145.18;0.00;102943.50;5070660;28;20336;-72
2021/10/10 08:44:46;;;;;;;9.00;4.07;;;;;;;-145.18;0.00;102943.50;5075014;28;20453;-72
2021/10/10 08:47:16;;;;;;;9.88;4.80;;;;;;;-145.18;0.00;102943.50;5067133;28;20036;-72
2021/10/10 08:49:42;;;;;;;7.63;4.22;;;;;;;-145.18;0.00;102943.50;5069335;28;20291;-72
2021/10/10 08:52:10;;;;;;;10.57;4.82;;;;;;;-145.18;0.00;102943.50;5062506;28;20107;-72
2021/10/10 08:54:35;;;;;;;10.88;5.20;;;;;;;-145.18;0.00;102943.50;5073291;28;20039;-73
2021/10/10 08:57:02;;;;;;;10.40;5.70;;;;;;;-145.18;0.00;102943.50;5077886;28;20673;-72
2021/10/10 08:59:31;;;;;;;11.03;5.80;;;;;;;-145.18;0.00;102943.50;5077571;28;20479;-73
2021/10/10 09:01:59;;;;;;;10.03;5.33;;;;;;;-145.18;0.00;102943.50;5061607;28;20086;-72
2021/10/10 09:04:25;;;;;;;10.97;5.80;;;;;;;-145.18;0.00;102943.50;5066158;28;20355;-72
2021/10/10 09:06:52;;;;;;;12.90;6.10;;;;;;;-145.18;0.00;102943.50;5077004;28;20032;-72
2021/10/10 09:09:31;;;;;;;12.10;6.10;;;;;;;-145.18;0.00;102943.50;5066795;28;20376;-73
2021/10/10 09:12:08;;;;;;;11.33;5.63;;;;;;;-145.18;0.00;102943.50;5058979;28;20056;-72
2021/10/10 09:14:54;;;;;;;11.97;6.13;;;;;;;-145.18;0.00;102943.50;5061132;28;20024;-72
2021/10/10 09:17:22;;;;;;;11.40;5.77;;;;;;;-145.18;0.00;102943.50;5066844;28;20113;-72
2021/10/10 09:19:50;;;;;;;14.00;6.67;;;;;;;-145.18;0.00;102943.50;5070645;28;20430;-72
2021/10/10 09:22:16;;;;;;;14.10;6.17;;;;;;;-145.18;0.00;102943.50;5079078;28;20028;-72
2021/10/10 09:24:41;;;;;;;12.83;6.27;;;;;;;-145.18;0.00;102943.50;5070095;28;20142;-72
2021/10/10 09:27:14;;;;;;;12.87;6.10;;;;;;;-145.18;0.00;102943.50;5071479;28;20154;-72
2021/10/10 09:29:45;;;;;;;12.87;6.30;;;;;;;-145.18;0.00;102943.50;5073088;28;20493;-72
2021/10/10 09:32:16;;;;;;;14.93;7.57;;;;;;;-145.18;0.00;102943.50;5077984;28;20393;-73
2021/10/10 09:34:42;;;;;;;14.80;6.17;;;;;;;-145.18;0.00;102943.50;5068835;28;20486;-72
2021/10/10 09:37:27;;;;;;;14.13;6.73;;;;;;;-145.18;0.00;102943.50;5060988;28;20043;-72
2021/10/10 09:40:04;;;;;;;11.93;5.90;;;;;;;-145.18;0.00;102943.50;5068573;28;20054;-71
2021/10/10 09:42:41;;;;;;;10.87;6.30;;;;;;;-145.18;0.00;102943.50;5078376;28;20028;-71
2021/10/10 09:45:24;;;;;;;11.90;6.03;;;;;;;-145.18;0.00;102943.50;5074121;28;20710;-72
2021/10/10 09:47:58;;;;;;;12.40;6.07;;;;;;;-145.18;0.00;102943.50;5078072;28;20509;-73
2021/10/10 09:50:26;;;;;;;13.20;6.00;;;;;;;-145.18;0.00;102943.50;5069779;28;20326;-72
2021/10/10 09:53:11;;;;;;;12.00;5.73;;;;;;;-145.18;0.00;102943.50;5064610;28;20089;-72
2021/10/10 09:55:53;;;;;;;13.60;6.40;;;;;;;-145.18;0.00;102943.50;5069990;28;20437;-72
2021/10/10 09:58:42;;;;;;;17.35;6.65;;;;;;;-145.18;0.00;102943.50;5066458;28;20058;-72
2021/10/10 10:01:23;;;;;;;13.13;6.67;;;;;;;-145.18;0.00;102943.50;5064560;28;20504;-72
2021/10/10 10:03:59;;;;;;;15.77;6.70;;;;;;;-145.18;0.00;102943.50;5077114;28;20089;-72
2021/10/10 10:06:31;;;;;;;14.20;7.03;;;;;;;-145.18;0.00;102943.50;5074825;28;20494;-72
2021/10/10 10:09:06;;;;;;;12.60;6.28;;;;;;;-145.18;0.00;102943.50;5067197;28;20066;-72
2021/10/10 10:11:34;;;;;;;13.33;6.73;;;;;;;-145.18;0.00;102943.50;5060814;28;20490;-73
2021/10/10 10:14:01;;;;;;;11.90;6.20;;;;;;;-145.18;0.00;102943.50;5065078;28;20448;-72
2021/10/10 10:16:30;;;;;;;10.87;5.83;;;;;;;-145.18;0.00;102943.50;5069869;28;20302;-72
2021/10/10 10:18:58;;;;;;;13.13;5.93;;;;;;;-145.18;0.00;102943.50;5069070;28;20071;-72
2021/10/10 10:21:23;;;;;;;14.07;6.90;;;;;;;-145.18;0.00;102943.50;5071246;28;20025;-72
2021/10/10 10:23:50;;;;;;;17.53;6.93;;;;;;;-145.18;0.00;102943.50;5071324;28;20505;-73
2021/10/10 10:26:16;;;;;;;20.17;6.60;;;;;;;-145.18;0.00;102943.50;5065012;28;20034;-72
2021/10/10 10:28:43;;;;;;;13.03;6.47;;;;;;;-145.18;0.00;102943.50;5072405;28;20371;-72
2021/10/10 10:31:12;;;;;;;18.60;7.60;;;;;;;-145.18;0.00;102943.50;5060563;28;20367;-72
2021/10/10 10:33:38;;;;;;;15.57;8.30;;;;;;;-145.18;0.00;102943.50;5071185;28;20097;-73
2021/10/10 10:36:04;;;;;;;15.07;7.33;;;;;;;-145.18;0.00;102943.50;5070024;28;20462;-72
2021/10/10 10:38:43;;;;;;;16.17;7.10;;;;;;;-145.18;0.00;102943.50;5077537;28;20108;-73
2021/10/10 10:41:50;;;;;;;15.93;7.03;;;;;;;-145.18;0.00;102943.50;5064200;28;20115;-72
2021/10/10 10:44:54;;;;;;;14.33;7.50;;;;;;;-145.18;0.00;102943.50;5068457;28;20103;-72
2021/10/10 10:47:35;;;;;;;16.73;7.23;;;;;;;-145.18;0.00;102943.50;4988350;28;20278;-72
2021/10/10 10:50:02;;;;;;;14.80;7.40;;;;;;;-145.18;0.00;102943.50;4984752;28;20460;-72
2021/10/10 10:52:42;;;;;;;16.70;7.50;;;;;;;-145.18;0.00;102943.50;4988854;28;20538;-72
2021/10/10 10:55:34;;;;;;;15.63;7.60;;;;;;;-145.18;0.00;102943.50;4988510;28;20120;-72
2021/10/10 10:58:10;;;;;;;;;;;;;;;-145.18;0.00;102943.50;4982879;28;20046;-72
2021/10/10 11:00:43;;;;;;;13.27;7.10;;;;;;;-145.18;0.00;102943.50;4982244;28;20582;-72
2021/10/10 11:03:14;;;;;;;17.90;7.50;;;;;;;-145.18;0.00;102943.50;4991560;28;20045;-72
2021/10/10 11:05:49;;;;;;;16.17;7.67;;;;;;;-145.18;0.00;102943.50;4991864;28;20120;-73
2021/10/10 11:08:39;;;;;;;16.43;7.60;;;;;;;-145.18;0.00;102943.50;4986754;28;20099;-73
2021/10/10 11:11:15;;;;;;;17.13;7.40;;;;;;;-145.18;0.00;102943.50;4987379;28;20246;-73
2021/10/10 11:13:55;;;;;;;14.60;7.57;;;;;;;-145.18;0.00;102943.50;4993126;28;20695;-73